CW3583 Santander ES current weather conditions

sailwx.info

Wind from 170

Air temperature 20.0° C
Dewpoint 17.9° C

Last reported at 2019-Aug-25 22:08 UTC.
Time now 2019-Aug-25 22:39 UTC

Location: N 43°28' W 003°47'.
View on Google Maps.

See reports from other nearby stations

  
Tides and Currents Weather Stations Pressure Air Temp Water Temp Dewpoint Dewpoint Depression Visibility Wind Speed Wind Dir Waves Ship Positions
date/time (UTC)wind fromknots sea level pressurealtimeterstation pressurevisibilityair tempwater tempwave heightnotes
2019-Aug-25 22:08 170 20.0
2019-Aug-25 22:03 136 20.0
2019-Aug-25 21:58 143 20.0
2019-Aug-25 21:53 104 20.0
2019-Aug-25 21:48 078 0 gusting 4 20.0
2019-Aug-25 21:43 098 0 gusting 4 20.0
2019-Aug-25 21:38 101 20.0
2019-Aug-25 21:33 094 0 gusting 6 20.0
2019-Aug-25 21:28 106 1 gusting 6 20.0
2019-Aug-25 21:23 103 0 gusting 4 20.0
2019-Aug-25 21:13 105 20.0
2019-Aug-25 21:08 130 20.0
2019-Aug-25 21:03 100 0 gusting 4 20.0
2019-Aug-25 20:53 132 20.0
2019-Aug-25 20:48 132 20.0
2019-Aug-25 20:43 200 20.0
2019-Aug-25 20:33 216 20.0
2019-Aug-25 20:28 197 0 gusting 6 20.0
2019-Aug-25 20:23 206 20.0
2019-Aug-25 20:18 198 20.0
2019-Aug-25 20:13 200 20.6
2019-Aug-25 20:08 206 20.6
2019-Aug-25 20:03 148 20.6
2019-Aug-25 19:58 191 20.6
2019-Aug-25 19:43 131 20.6
2019-Aug-25 19:38 132 20.6
2019-Aug-25 19:13 064 21.1
2019-Aug-25 19:03 090 21.1
2019-Aug-25 18:58 090 21.1
2019-Aug-25 18:53 056 21.1
2019-Aug-25 18:43 035 1 gusting 7 21.1
2019-Aug-25 18:38 055 4 gusting 10 21.1
2019-Aug-25 18:33 072 7 gusting 10 21.1
2019-Aug-25 18:28 157 21.1
2019-Aug-25 18:18 166 21.1
2019-Aug-25 18:13 179 21.1
2019-Aug-25 18:08 153 21.1
2019-Aug-25 17:58 025 21.1
2019-Aug-25 17:53 029 21.1
2019-Aug-25 17:48 029 21.1
2019-Aug-25 17:38 029 21.1
2019-Aug-25 17:28 028 21.1
2019-Aug-25 17:13 020 5 gusting 8 21.1
2019-Aug-25 17:03 010 4 gusting 6 21.1
2019-Aug-25 16:48 359 0 gusting 2 21.1
2019-Aug-25 16:38 358 4 gusting 7 21.1
2019-Aug-25 16:33 015 5 gusting 7 21.1
2019-Aug-25 16:23 359 6 gusting 8 21.1
2019-Aug-25 16:18 359 6 gusting 8 21.1
2019-Aug-25 16:08 009 6 gusting 8 21.1
2019-Aug-25 16:03 010 6 gusting 7 21.7
2019-Aug-25 15:58 002 5 gusting 8 21.7
2019-Aug-25 15:53 014 6 gusting 7 21.7
2019-Aug-25 15:48 010 5 gusting 7 21.1
2019-Aug-25 15:43 009 6 gusting 7 21.7
2019-Aug-25 15:38 010 6 gusting 8 21.7
2019-Aug-25 15:33 015 5 gusting 8 21.1
2019-Aug-25 15:28 014 3 gusting 8 21.7
2019-Aug-25 15:08 021 5 gusting 7 21.7
2019-Aug-25 14:53 017 5 gusting 8 21.7
2019-Aug-25 14:48 015 5 gusting 8 21.7
2019-Aug-25 14:43 014 2 gusting 7 21.7
2019-Aug-25 14:38 024 5 gusting 8 21.7
2019-Aug-25 14:28 025 6 gusting 8 21.7
2019-Aug-25 14:23 025 5 gusting 8 21.7
2019-Aug-25 14:13 024 3 gusting 6 21.7
2019-Aug-25 14:03 020 0 gusting 5 21.7
2019-Aug-25 13:58 024 4 gusting 6 21.7
2019-Aug-25 13:48 047 2 gusting 6 21.7
2019-Aug-25 13:43 027 5 gusting 7 21.7
2019-Aug-25 13:38 027 3 gusting 6 21.7
2019-Aug-25 13:33 037 2 gusting 5 21.7
2019-Aug-25 13:28 030 4 gusting 6 21.7
2019-Aug-25 13:23 025 2 gusting 6 21.7
2019-Aug-25 13:18 020 4 gusting 6 21.7
2019-Aug-25 13:08 028 4 gusting 6 21.7
2019-Aug-25 13:03 030 2 gusting 6 21.7
2019-Aug-25 12:58 014 4 gusting 6 21.7
2019-Aug-25 12:53 025 4 gusting 6 21.7
2019-Aug-25 12:48 030 4 gusting 6 21.7
2019-Aug-25 12:43 026 1 gusting 5 21.7
2019-Aug-25 12:38 027 4 gusting 7 21.7
2019-Aug-25 12:33 047 5 gusting 7 21.7
2019-Aug-25 12:28 025 0 gusting 2 21.1
2019-Aug-25 12:23 041 2 gusting 7 21.1
2019-Aug-25 12:18 039 0 gusting 6 21.1
2019-Aug-25 12:13 027 2 gusting 7 21.1
2019-Aug-25 12:03 041 5 gusting 8 21.1
2019-Aug-25 11:58 031 6 gusting 8 21.1
2019-Aug-25 11:53 034 5 gusting 10 21.1
2019-Aug-25 11:48 028 6 gusting 8 21.1
2019-Aug-25 11:38 030 3 gusting 8 21.1
2019-Aug-25 11:33 033 1 gusting 6 21.1
2019-Aug-25 11:28 026 3 gusting 7 21.1
2019-Aug-25 11:23 029 5 gusting 7 21.1
2019-Aug-25 11:18 006 1 gusting 5 21.1
2019-Aug-25 11:13 024 3 gusting 7 21.1
2019-Aug-25 11:08 037 1 gusting 6 21.1
2019-Aug-25 11:03 025 4 gusting 8 21.1
2019-Aug-25 10:58 030 7 gusting 10 21.1
2019-Aug-25 10:53 031 7 gusting 10 21.1
2019-Aug-25 10:33 027 6 gusting 10 21.1
2019-Aug-25 10:28 026 6 gusting 10 21.1
2019-Aug-25 10:13 018 6 gusting 7 21.1
2019-Aug-25 10:08 018 6 gusting 8 21.1
2019-Aug-25 09:48 010 5 gusting 7 21.1
2019-Aug-25 09:43 017 1 gusting 6 21.1
2019-Aug-25 09:33 005 5 gusting 7 21.1
2019-Aug-25 09:28 017 5 gusting 7 21.1
2019-Aug-25 09:23 025 1 gusting 6 21.1
2019-Aug-25 09:18 024 4 gusting 6 21.1
2019-Aug-25 09:13 022 4 gusting 6 21.1
2019-Aug-25 09:08 015 4 gusting 6 21.1
2019-Aug-25 09:03 015 4 gusting 5 21.1
2019-Aug-25 08:58 014 0 gusting 5 21.1
2019-Aug-25 08:48 020 4 gusting 6 21.1
2019-Aug-25 08:38 011 5 gusting 6 20.6
2019-Aug-25 08:23 005 4 gusting 6 20.6
2019-Aug-25 08:13 003 2 gusting 4 20.6
2019-Aug-25 08:08 003 20.6
2019-Aug-25 08:03 010 20.6
2019-Aug-25 07:58 042 20.6
2019-Aug-25 07:48 134 20.6
2019-Aug-25 07:43 134 20.6
2019-Aug-25 07:38 134 20.6
2019-Aug-25 07:28 134 20.6
2019-Aug-25 07:23 134 20.6
2019-Aug-25 07:13 134 20.6
2019-Aug-25 07:08 134 20.0
2019-Aug-25 07:03 134 20.0
2019-Aug-25 06:53 134 20.0
2019-Aug-25 06:48 134 20.0
2019-Aug-25 06:38 134 20.0
2019-Aug-25 06:33 134 20.0
2019-Aug-25 06:13 134 20.0
2019-Aug-25 06:03 135 20.0
2019-Aug-25 05:58 131 2 gusting 4 20.0
2019-Aug-25 05:53 143 20.6
2019-Aug-25 05:48 130 20.6
2019-Aug-25 05:43 327 20.6
2019-Aug-25 05:33 327 20.6
2019-Aug-25 05:23 174 20.0
2019-Aug-25 05:13 174 20.0
2019-Aug-25 05:08 174 20.0
2019-Aug-25 05:03 174 20.0
2019-Aug-25 04:58 174 20.0
2019-Aug-25 04:43 174 20.0
2019-Aug-25 04:38 174 20.0
2019-Aug-25 04:28 174 20.0
2019-Aug-25 04:18 174 20.0
2019-Aug-25 04:13 174 20.0
2019-Aug-25 04:08 174 20.0
2019-Aug-25 04:03 174 20.0
2019-Aug-25 03:58 174 20.0
2019-Aug-25 03:43 174 20.0
2019-Aug-25 03:38 174 20.0
2019-Aug-25 03:28 174 20.0
2019-Aug-25 03:23 174 20.0
2019-Aug-25 03:03 174 20.0
2019-Aug-25 02:58 174 20.0
2019-Aug-25 02:53 174 20.0
2019-Aug-25 02:48 174 20.0
2019-Aug-25 02:43 174 20.0
2019-Aug-25 02:33 174 20.0
2019-Aug-25 02:28 174 20.0
2019-Aug-25 02:23 174 20.0
2019-Aug-25 02:18 174 20.0
2019-Aug-25 02:08 174 20.6
2019-Aug-25 02:03 174 20.6
2019-Aug-25 01:58 219 20.6
2019-Aug-25 01:53 219 20.6
2019-Aug-25 01:43 219 20.6
2019-Aug-25 01:38 219 20.6
2019-Aug-25 01:28 219 20.6
2019-Aug-25 01:23 219 20.6
2019-Aug-25 01:18 219 20.6
2019-Aug-25 01:08 279 20.6
2019-Aug-25 01:03 284 20.6
2019-Aug-25 00:58 284 20.6
2019-Aug-25 00:53 284 20.6
2019-Aug-25 00:33 284 20.6
2019-Aug-25 00:28 284 20.6
2019-Aug-25 00:23 284 20.6
2019-Aug-25 00:18 284 20.6
2019-Aug-25 00:13 279 20.6
2019-Aug-25 00:03 237 20.6
2019-Aug-24 23:58 237 20.6
2019-Aug-24 23:53 237 20.6
2019-Aug-24 23:48 242 20.6
2019-Aug-24 23:43 250 20.6
2019-Aug-24 23:38 250 20.6
2019-Aug-24 23:33 250 20.6
2019-Aug-24 23:28 250 0 gusting 2 20.6
2019-Aug-24 23:23 283 20.6
2019-Aug-24 23:18 282 20.6
2019-Aug-24 23:13 276 20.6
2019-Aug-24 23:08 248 20.6
2019-Aug-24 23:03 282 0 gusting 2 20.6
2019-Aug-24 22:43 251 20.6
2019-Aug-24 22:33 282 1 gusting 2 20.6
2019-Aug-24 22:28 278 20.6
2019-Aug-24 22:18 249 2 gusting 4 21.1
2019-Aug-24 22:13 276 0 gusting 2 21.1
2019-Aug-24 22:08 242 21.1
2019-Aug-24 22:03 242 21.1
2019-Aug-24 21:58 242 21.1
2019-Aug-24 21:53 242 21.1
2019-Aug-24 21:48 242 21.1
2019-Aug-24 21:43 265 21.1
2019-Aug-24 21:38 263 1 gusting 4 21.1
2019-Aug-24 21:28 272 21.1
2019-Aug-24 21:23 282 1 gusting 5 21.1
2019-Aug-24 21:18 280 21.1
2019-Aug-24 21:08 263 21.1
2019-Aug-24 21:03 238 21.1
2019-Aug-24 20:58 225 1 gusting 2 21.1
2019-Aug-24 20:53 251 21.1
2019-Aug-24 20:48 224 2 gusting 6 21.1
2019-Aug-24 20:43 245 0 gusting 6 20.6
2019-Aug-24 20:38 263 0 gusting 4 20.6
2019-Aug-24 20:28 256 20.6
2019-Aug-24 20:18 256 0 gusting 5 21.1
2019-Aug-24 20:13 281 1 gusting 5 21.1
2019-Aug-24 20:08 281 0 gusting 2 21.1
2019-Aug-24 20:03 284 21.1
2019-Aug-24 19:58 228 2 gusting 5 21.1
2019-Aug-24 19:53 227 21.1
2019-Aug-24 19:48 248 21.1
2019-Aug-24 19:43 244 3 gusting 6 21.1
2019-Aug-24 19:28 257 21.1
2019-Aug-24 19:23 269 2 gusting 6 21.1
2019-Aug-24 19:18 264 4 gusting 6 21.1
2019-Aug-24 19:13 255 0 gusting 6 21.1
2019-Aug-24 19:08 265 21.1
2019-Aug-24 19:03 275 3 gusting 7 21.1
2019-Aug-24 18:53 278 4 gusting 7 21.1
2019-Aug-24 18:48 280 1 gusting 8 21.1
2019-Aug-24 18:43 271 3 gusting 8 21.1
2019-Aug-24 18:38 287 3 gusting 7 21.1
2019-Aug-24 18:33 276 3 gusting 6 21.1
2019-Aug-24 18:28 275 5 gusting 10 21.1
2019-Aug-24 18:23 300 4 gusting 8 21.1
2019-Aug-24 18:03 278 4 gusting 8 21.1
2019-Aug-24 17:58 291 5 gusting 8 21.1
2019-Aug-24 17:53 278 1 gusting 6 21.1
2019-Aug-24 17:48 296 3 gusting 10 21.1
2019-Aug-24 17:43 293 2 gusting 8 21.1
2019-Aug-24 17:28 305 2 gusting 7 21.1
2019-Aug-24 17:23 271 6 gusting 10 21.1
2019-Aug-24 17:18 247 2 gusting 10 21.1
2019-Aug-24 17:13 285 4 gusting 10 21.1
2019-Aug-24 17:08 294 2 gusting 10 21.1
2019-Aug-24 17:03 261 2 gusting 7 21.1
2019-Aug-24 16:58 298 4 gusting 10 21.1
2019-Aug-24 16:48 272 6 gusting 10 21.1
2019-Aug-24 16:43 274 5 gusting 10 21.1
2019-Aug-24 16:38 311 4 gusting 10 21.7
2019-Aug-24 16:33 286 0 gusting 8 21.1
2019-Aug-24 16:23 254 1 gusting 7 21.7
2019-Aug-24 16:18 236 5 gusting 10 21.7
2019-Aug-24 16:08 282 5 gusting 10 21.7
2019-Aug-24 15:58 278 3 gusting 10 21.7
2019-Aug-24 15:53 297 4 gusting 8 21.7
2019-Aug-24 15:43 273 4 gusting 10 21.7
2019-Aug-24 15:38 318 2 gusting 8 21.7
2019-Aug-24 15:28 298 5 gusting 11 21.7
2019-Aug-24 15:23 311 2 gusting 8 21.7
2019-Aug-24 15:18 278 3 gusting 6 21.7
2019-Aug-24 15:13 311 2 gusting 10 21.7
2019-Aug-24 15:08 282 6 gusting 12 21.7
2019-Aug-24 14:53 284 5 gusting 8 21.7
2019-Aug-24 14:48 289 6 gusting 10 21.7
2019-Aug-24 14:43 288 2 gusting 10 22.2
2019-Aug-24 14:28 277 4 gusting 11 22.2
2019-Aug-24 14:23 307 4 gusting 12 21.7
2019-Aug-24 14:03 321 4 gusting 10 22.2
2019-Aug-24 13:58 301 5 gusting 10 22.2
2019-Aug-24 13:53 278 5 gusting 11 22.2
2019-Aug-24 13:48 256 5 gusting 13 22.2
2019-Aug-24 13:38 281 5 gusting 11 22.2
2019-Aug-24 13:33 274 2 gusting 13 22.2
2019-Aug-24 13:23 310 4 gusting 12 22.2
2019-Aug-24 13:18 317 5 gusting 10 22.2
2019-Aug-24 13:13 279 7 gusting 13 22.2
2019-Aug-24 13:08 306 7 gusting 12 22.2
2019-Aug-24 13:03 324 5 gusting 12 22.2
2019-Aug-24 12:58 308 4 gusting 10 22.2
2019-Aug-24 12:38 263 7 gusting 11 22.2
2019-Aug-24 12:33 282 4 gusting 13 22.2
2019-Aug-24 12:28 270 6 gusting 13 22.2
2019-Aug-24 12:23 313 6 gusting 12 22.2
2019-Aug-24 12:18 278 9 gusting 14 22.2
2019-Aug-24 12:13 287 6 gusting 12 22.2
2019-Aug-24 12:08 279 6 gusting 11 22.2
2019-Aug-24 11:58 290 6 gusting 13 21.7
2019-Aug-24 11:53 281 6 gusting 13 21.7
2019-Aug-24 11:48 292 3 gusting 10 21.7
2019-Aug-24 11:43 298 6 gusting 13 21.7
2019-Aug-24 11:38 320 7 gusting 13 21.7
2019-Aug-24 11:33 302 7 gusting 13 21.7
2019-Aug-24 11:28 269 5 gusting 13 21.7
2019-Aug-24 11:23 261 6 gusting 13 21.7
2019-Aug-24 11:18 239 4 gusting 12 21.7
2019-Aug-24 11:08 271 6 gusting 13 21.7
2019-Aug-24 11:03 268 10 gusting 17 21.7
2019-Aug-24 10:58 278 8 gusting 13 22.2
2019-Aug-24 10:43 280 4 gusting 13 22.2
2019-Aug-24 10:38 277 5 gusting 10 22.2
2019-Aug-24 10:33 278 6 gusting 11 22.2
2019-Aug-24 10:23 304 5 gusting 12 22.2
2019-Aug-24 10:18 284 5 gusting 12 22.2
2019-Aug-24 10:13 283 5 gusting 13 22.2
2019-Aug-24 10:08 267 6 gusting 13 22.2
2019-Aug-24 10:03 249 3 gusting 10 22.8
2019-Aug-24 09:58 250 4 gusting 10 22.2
2019-Aug-24 09:53 263 5 gusting 11 22.8
2019-Aug-24 09:48 257 6 gusting 11 22.8
2019-Aug-24 09:43 314 1 gusting 10 22.2
2019-Aug-24 09:38 290 2 gusting 8 22.2
2019-Aug-24 09:33 262 5 gusting 10 22.2
2019-Aug-24 09:28 244 2 gusting 8 22.2
2019-Aug-24 09:23 279 5 gusting 10 22.2
2019-Aug-24 09:18 244 1 gusting 5 22.2
2019-Aug-24 09:08 289 2 gusting 6 22.2
2019-Aug-24 08:58 246 5 gusting 12 22.2
2019-Aug-24 08:53 280 5 gusting 10 22.2
2019-Aug-24 08:48 285 5 gusting 10 22.2
2019-Aug-24 08:43 256 1 gusting 10 21.7
2019-Aug-24 08:38 280 4 gusting 10 21.7
2019-Aug-24 08:28 254 0 gusting 7 21.7
2019-Aug-24 08:23 255 4 gusting 10 21.7
2019-Aug-24 08:13 279 5 gusting 10 21.7
2019-Aug-24 08:03 265 5 gusting 11 21.7
2019-Aug-24 07:48 231 4 gusting 10 21.1
2019-Aug-24 07:43 250 3 gusting 10 21.1
2019-Aug-24 07:38 242 2 gusting 6 21.1
2019-Aug-24 07:33 240 3 gusting 10 21.1
2019-Aug-24 07:28 254 4 gusting 8 21.1
2019-Aug-24 07:23 259 4 gusting 7 20.6
2019-Aug-24 07:18 261 4 gusting 13 20.6
2019-Aug-24 07:13 222 4 gusting 8 20.6
2019-Aug-24 07:08 190 4 gusting 10 20.6
2019-Aug-24 07:03 299 1 gusting 10 20.6
2019-Aug-24 06:58 250 2 gusting 6 20.6
2019-Aug-24 06:53 255 2 gusting 8 20.6
2019-Aug-24 06:48 231 1 gusting 8 20.6
2019-Aug-24 06:38 222 2 gusting 5 20.0
2019-Aug-24 06:33 206 3 gusting 6 20.0
2019-Aug-24 06:28 207 2 gusting 4 20.0
2019-Aug-24 06:23 223 2 gusting 6 20.0
2019-Aug-24 06:18 215 2 gusting 5 20.0
2019-Aug-24 06:13 222 2 gusting 5 20.0
2019-Aug-24 06:08 225 1 gusting 4 20.0
2019-Aug-24 06:03 220 0 gusting 4 20.0
2019-Aug-24 05:58 222 1 gusting 4 19.4
2019-Aug-24 05:53 235 0 gusting 4 19.4
2019-Aug-24 05:48 211 1 gusting 5 19.4
2019-Aug-24 05:43 235 1 gusting 5 19.4
2019-Aug-24 05:38 220 1 gusting 6 19.4
2019-Aug-24 05:33 224 2 gusting 5 18.9
2019-Aug-24 05:28 212 2 gusting 6 18.9
2019-Aug-24 05:23 212 2 gusting 5 18.9
2019-Aug-24 05:18 199 1 gusting 5 18.9
2019-Aug-24 05:13 205 18.9
2019-Aug-24 05:08 211 18.9
2019-Aug-24 05:03 192 19.4
2019-Aug-24 04:48 193 1 gusting 5 19.4
2019-Aug-24 04:43 206 3 gusting 6 19.4
2019-Aug-24 04:28 212 1 gusting 4 18.9
2019-Aug-24 04:23 207 2 gusting 6 19.4
2019-Aug-24 04:13 202 0 gusting 5 19.4
2019-Aug-24 04:08 207 1 gusting 6 19.4
2019-Aug-24 03:53 179 20.0
2019-Aug-24 03:48 164 20.0
2019-Aug-24 03:43 169 20.0
2019-Aug-24 03:38 173 20.0
2019-Aug-24 03:33 193 20.6
2019-Aug-24 03:28 186 20.6
2019-Aug-24 03:23 218 20.6
2019-Aug-24 03:08 291 20.6
2019-Aug-24 03:03 259 20.6
2019-Aug-24 02:58 259 20.6
2019-Aug-24 02:48 275 0 gusting 4 20.6
2019-Aug-24 02:38 215 20.6
2019-Aug-24 02:28 180 20.6
2019-Aug-24 02:23 180 20.6
2019-Aug-24 02:18 180 20.6
2019-Aug-24 02:08 180 20.6
2019-Aug-24 02:03 180 20.6
2019-Aug-24 01:58 180 20.6
2019-Aug-24 01:53 180 20.6
2019-Aug-24 01:48 180 20.6
2019-Aug-24 01:33 180 21.1
2019-Aug-24 01:28 180 21.1
2019-Aug-24 01:18 180 21.1
2019-Aug-24 01:13 180 21.1
2019-Aug-24 00:58 180 21.1
2019-Aug-24 00:53 180 21.1
2019-Aug-24 00:48 180 21.1
2019-Aug-24 00:43 180 21.1
2019-Aug-24 00:38 180 20.6
2019-Aug-24 00:28 180 20.6
2019-Aug-24 00:23 180 20.6
2019-Aug-24 00:13 180 20.6
2019-Aug-24 00:08 184 20.6
2019-Aug-24 00:03 163 20.6
2019-Aug-23 23:53 163 21.1
2019-Aug-23 23:48 163 21.1
2019-Aug-23 23:38 163 20.6
2019-Aug-23 23:33 152 20.6
2019-Aug-23 23:28 152 20.6
2019-Aug-23 23:18 152 20.6
2019-Aug-23 23:03 152 21.1
2019-Aug-23 22:58 152 21.1
2019-Aug-23 22:38 152 20.6
2019-Aug-23 22:33 152 20.6
2019-Aug-23 22:28 152 20.6
2019-Aug-23 22:23 152 21.1
2019-Aug-23 22:13 152 21.1
2019-Aug-23 22:08 152 21.1
2019-Aug-23 22:03 152 21.1